Airfield :
LOGIN :

Register | Disclaimer

   EN    FR    IT 

 










Legend :    VFR   Marginal VFR   IFR   Intensive IFR   Very Intensive IFR
Visi :
Ceiling :
>= 8 km
>= 3000ft
5 to 8 km
1000 to 3000 ft
1500m to 5 km
500 to 1000 ft
800 to 1500m
200 to 500 ft
< 800m
< 200 ft
Symbols :   Thunderstorms  Fog  Heavy snow  Heavy precipitations  Wind > 20 kt
SIGMETs :     Misc.  Thunderstorms  Icing  Turbulence  Mountain Waves  Volcanic Ashes






- Airport Elevation : 96 ft
- IATA code : REG


LICR - Reggio Calabria

CURRENT METAR :
  • 250120Z AUTO 08005KT 050V120 9999 -RA FEW058/// BKN100/// 23/19 Q1012

EXPIRED METARs :
  • 250050Z AUTO 04004KT 9999 -RA OVC093/// 23/19 Q1014
  • 250020Z AUTO 36003KT 320V050 9999 -RA BKN088/// 24/20 Q1014
  • 242350Z AUTO 35006KT 9999 BKN130/// 24/20 Q1012
  • 242320Z AUTO 35004KT 320V040 9999 BKN140/// 24/18 Q1012
  • 242250Z AUTO 04004KT 020V090 9999 BKN170/// 24/18 Q1012
  • 242150Z AUTO 36007KT 9999 BKN140/// 25/19 Q1012
  • 242120Z AUTO 01009KT 350V050 9999 FEW140/// SCT160/// 25/17 Q1011
  • 242050Z AUTO 36009KT 9999 FEW180/// 24/19 Q1012

TAF TAF LICR
Valid from the 25 at 00:00 until the 26 at 00:00 UTC


242300Z 2500/2524 VRB05KT 9999 SCT030
TEMPO 2500/2509 4000 SHRA
BECMG 2510/2512 22014KT
BECMG 2517/2519 VRB05KT



MET'MAP, your aeronautical weather chart ! - Copyright ORBIFLY December 2007 - Disclaimer

ORBIFLY MET'MAP TEAM :

Programming & Development : Alexandra Zaïnal
Original concept : Baudouin d'Aumeries
Technical & hardware support : Manuel Goepfert
Assistance : Marc-Olivier Méhu




SOURCES & CREDITS :

   NOAA